Terminal Aerodrome Forecast
Issued by NWS Louisville, KY

Home | Current Version | Previous Version | Text Only | Print | Product List | Glossary On
Versions: 1 2 3 4 5 6 7 8 9 10 11 12 13 14 15 16 17 18 19 20 21
669
FTUS43 KLMK 161120
TAFBWG
TAF
KBWG 161120Z 1612/1712 00000KT P6SM BKN050
     FM161400 19005KT P6SM VCSH BKN050
     FM161800 21007KT P6SM VCTS BKN050CB
     FM170000 VRB03KT P6SM SCT150
     FM170600 VRB03KT 6SM BR SCT250=

USA.gov is the U.S. government's official web portal to all federal, state and local government web resources and services.